Time;durP1;ratioP1;P1;durP2;ratioP2;P2;SDS_P1;SDS_P2;PMS_P1;PMS_P2;Temp;Humidity;BMP_temperature;BMP_pressure;BME280_temperature;BME280_humidity;BME280_pressure;Samples;Min_cycle;Max_cycle;Signal;HPM_P1;HPM_P2
2022/07/04 00:00:53;;;;;;;;;;;26.50;51.10;;;;;;5040090;28;19929;-76
2022/07/04 00:03:20;;;;;;;;;;;26.50;51.30;;;;;;5037720;28;19928;-74
2022/07/04 00:05:46;;;;;;;;;;;26.50;51.20;;;;;;5038282;28;19936;-78
2022/07/04 00:08:13;;;;;;;;;;;26.40;51.30;;;;;;5038896;28;19932;-75
2022/07/04 00:10:39;;;;;;;;;;;26.40;51.30;;;;;;5037932;28;19937;-75
2022/07/04 00:13:07;;;;;;;;;;;26.40;51.20;;;;;;5038563;28;19932;-77
2022/07/04 00:15:34;;;;;;;;;;;26.30;51.30;;;;;;5037346;28;19936;-77
2022/07/04 00:18:00;;;;;;;;;;;26.30;51.50;;;;;;5038403;28;19940;-76
2022/07/04 00:20:27;;;;;;;;;;;26.20;51.60;;;;;;5038715;28;19936;-76
2022/07/04 00:22:54;;;;;;;;;;;26.20;51.90;;;;;;5038359;28;19938;-76
2022/07/04 00:25:20;;;;;;;;;;;26.20;51.90;;;;;;5038902;28;19929;-77
2022/07/04 00:27:47;;;;;;;;;;;26.10;52.00;;;;;;5041052;28;19936;-76
2022/07/04 00:30:15;;;;;;;;;;;26.10;52.10;;;;;;5041718;28;19932;-76
2022/07/04 00:32:41;;;;;;;;;;;26.00;52.70;;;;;;5042717;28;19932;-74
2022/07/04 00:35:08;;;;;;;;;;;26.00;52.20;;;;;;5042465;28;20287;-74
2022/07/04 00:37:35;;;;;;;;;;;26.00;52.40;;;;;;5038447;28;19942;-77
2022/07/04 00:40:01;;;;;;;;;;;25.90;52.60;;;;;;5042186;28;19951;-77
2022/07/04 00:42:28;;;;;;;;;;;25.90;52.50;;;;;;5045027;28;19928;-76
2022/07/04 00:44:54;;;;;;;;;;;25.90;52.60;;;;;;5045637;28;19932;-77
2022/07/04 00:47:22;;;;;;;;;;;25.80;52.70;;;;;;5041207;28;19933;-74
2022/07/04 00:49:49;;;;;;;;;;;25.80;52.80;;;;;;5043039;28;19933;-76
2022/07/04 00:52:16;;;;;;;;;;;25.80;52.90;;;;;;5042394;28;19929;-76
2022/07/04 00:54:42;;;;;;;;;;;25.70;53.00;;;;;;5038732;28;19929;-75
2022/07/04 00:57:09;;;;;;;;;;;25.60;53.00;;;;;;5038448;28;19933;-77
2022/07/04 00:59:36;;;;;;;;;;;25.60;53.00;;;;;;5044005;28;19936;-77
2022/07/04 01:02:02;;;;;;;;;;;25.60;53.20;;;;;;5037629;28;19929;-74
2022/07/04 01:04:30;;;;;;;;;;;25.60;53.30;;;;;;5041741;28;19948;-77
2022/07/04 01:06:57;;;;;;;;;;;25.50;53.30;;;;;;5040554;28;19933;-76
2022/07/04 01:09:23;;;;;;;;;;;25.50;53.40;;;;;;5039756;28;19936;-76
2022/07/04 01:11:50;;;;;;;;;;;25.50;53.50;;;;;;5042118;28;19936;-78
2022/07/04 01:14:17;;;;;;;;;;;25.50;53.70;;;;;;5040910;28;19972;-75
2022/07/04 01:16:43;;;;;;;;;;;25.40;53.60;;;;;;5040996;28;19929;-77
2022/07/04 01:19:10;;;;;;;;;;;25.40;53.70;;;;;;5040473;28;19933;-76
2022/07/04 01:21:38;;;;;;;;;;;25.30;53.70;;;;;;5040213;28;19933;-76
2022/07/04 01:24:05;;;;;;;;;;;25.30;53.90;;;;;;5041358;28;19978;-75
2022/07/04 01:26:32;;;;;;;;;;;25.30;53.90;;;;;;5041068;28;19936;-77
2022/07/04 01:28:58;;;;;;;;;;;25.20;54.00;;;;;;5044055;28;19929;-76
2022/07/04 01:31:25;;;;;;;;;;;25.20;54.10;;;;;;5040325;28;20428;-77
2022/07/04 01:33:51;;;;;;;;;;;25.10;54.00;;;;;;5040453;28;19940;-77
2022/07/04 01:36:18;;;;;;;;;;;25.10;54.00;;;;;;5038064;28;19928;-74
2022/07/04 01:38:46;;;;;;;;;;;25.10;54.10;;;;;;5041199;28;19952;-75
2022/07/04 01:41:12;;;;;;;;;;;25.10;54.20;;;;;;5039738;28;19940;-76
2022/07/04 01:43:39;;;;;;;;;;;25.00;54.20;;;;;;5042402;28;19933;-76
2022/07/04 01:46:05;;;;;;;;;;;25.00;54.30;;;;;;5036342;28;19956;-76
2022/07/04 01:48:32;;;;;;;;;;;25.00;54.20;;;;;;5039991;28;19940;-77
2022/07/04 01:50:58;;;;;;;;;;;24.90;54.30;;;;;;5042331;28;19935;-77
2022/07/04 01:53:25;;;;;;;;;;;24.90;54.80;;;;;;5040824;28;19978;-77
2022/07/04 01:55:53;;;;;;;;;;;24.90;54.30;;;;;;5039535;28;19928;-77
2022/07/04 01:58:19;;;;;;;;;;;24.90;54.30;;;;;;5041160;28;20010;-75
2022/07/04 02:03:30;;;;;;;;;;;24.70;54.30;;;;;;5034535;28;19970;-74
2022/07/04 02:05:57;;;;;;;;;;;24.70;54.30;;;;;;5039315;28;19937;-76
2022/07/04 02:09:14;;;;;;;;;;;24.70;54.20;;;;;;5038496;28;19936;-74
2022/07/04 02:11:11;;;;;;;;;;;24.60;54.20;;;;;;5038784;28;19978;-74
2022/07/04 02:13:37;;;;;;;;;;;24.60;54.30;;;;;;5037937;28;19937;-76
2022/07/04 02:16:04;;;;;;;;;;;24.50;54.40;;;;;;5039757;28;19928;-78
2022/07/04 02:18:30;;;;;;;;;;;24.50;54.30;;;;;;5038087;28;19929;-76
2022/07/04 02:20:57;;;;;;;;;;;24.50;54.40;;;;;;5042241;28;20302;-77
2022/07/04 02:23:23;;;;;;;;;;;24.40;54.40;;;;;;5044264;28;19929;-74
2022/07/04 02:25:50;;;;;;;;;;;24.40;54.40;;;;;;5037938;28;19936;-75
2022/07/04 02:28:18;;;;;;;;;;;24.40;54.40;;;;;;5042578;28;19929;-75
2022/07/04 02:30:45;;;;;;;;;;;24.30;54.40;;;;;;5042493;28;20007;-74
2022/07/04 02:33:12;;;;;;;;;;;24.30;54.50;;;;;;5038058;28;19936;-74
2022/07/04 02:35:39;;;;;;;;;;;24.30;54.50;;;;;;5036735;28;20488;-74
2022/07/04 02:38:05;;;;;;;;;;;24.20;54.50;;;;;;5041797;28;19928;-76
2022/07/04 02:40:32;;;;;;;;;;;24.20;54.50;;;;;;5036725;28;20318;-76
2022/07/04 02:42:58;;;;;;;;;;;24.20;54.50;;;;;;5040959;28;19929;-76
2022/07/04 02:45:26;;;;;;;;;;;24.20;54.60;;;;;;5035919;28;19932;-77
2022/07/04 02:47:53;;;;;;;;;;;24.10;54.60;;;;;;5041020;28;19933;-75
2022/07/04 02:50:20;;;;;;;;;;;24.10;54.60;;;;;;5038388;28;19940;-77
2022/07/04 02:52:46;;;;;;;;;;;24.00;54.60;;;;;;5040664;28;20341;-74
2022/07/04 02:55:13;;;;;;;;;;;24.00;54.50;;;;;;5035301;28;20348;-75
2022/07/04 02:57:39;;;;;;;;;;;24.00;54.70;;;;;;5039746;28;19932;-74
2022/07/04 03:00:06;;;;;;;;;;;23.90;54.60;;;;;;5039000;28;19943;-74
2022/07/04 03:02:34;;;;;;;;;;;23.90;54.80;;;;;;5041305;28;19932;-76
2022/07/04 03:05:01;;;;;;;;;;;23.90;54.70;;;;;;5037325;28;19940;-75
2022/07/04 03:07:27;;;;;;;;;;;23.80;54.80;;;;;;5041112;28;19932;-77
2022/07/04 03:09:54;;;;;;;;;;;23.80;54.70;;;;;;5038863;28;19940;-75
2022/07/04 03:12:20;;;;;;;;;;;23.80;54.90;;;;;;5037912;28;19936;-74
2022/07/04 03:14:47;;;;;;;;;;;23.70;54.80;;;;;;5039348;28;19928;-76
2022/07/04 03:17:13;;;;;;;;;;;23.70;54.90;;;;;;5038933;28;19928;-76
2022/07/04 03:19:41;;;;;;;;;;;23.70;55.00;;;;;;5038329;28;19933;-75
2022/07/04 03:22:08;;;;;;;;;;;23.60;55.00;;;;;;5039862;28;19933;-76
2022/07/04 03:24:34;;;;;;;;;;;23.60;55.00;;;;;;5039255;28;19929;-77
2022/07/04 03:27:01;;;;;;;;;;;23.50;55.00;;;;;;5039084;28;19929;-77
2022/07/04 03:29:27;;;;;;;;;;;23.50;55.20;;;;;;5038849;28;19940;-77
2022/07/04 03:31:54;;;;;;;;;;;23.50;55.20;;;;;;5041519;28;20416;-77
2022/07/04 03:34:21;;;;;;;;;;;23.40;55.20;;;;;;5036801;28;19925;-74
2022/07/04 03:36:48;;;;;;;;;;;23.40;55.30;;;;;;5034457;28;19937;-76
2022/07/04 03:39:15;;;;;;;;;;;23.40;55.40;;;;;;5038918;28;19937;-76
2022/07/04 03:41:41;;;;;;;;;;;23.40;55.40;;;;;;5039807;28;19936;-75
2022/07/04 03:44:08;;;;;;;;;;;23.30;55.50;;;;;;5038282;28;19940;-76
2022/07/04 03:46:35;;;;;;;;;;;23.30;55.50;;;;;;5036591;28;19970;-78
2022/07/04 03:49:01;;;;;;;;;;;23.30;55.60;;;;;;5037828;28;19933;-74
2022/07/04 03:51:28;;;;;;;;;;;23.20;55.70;;;;;;5039338;28;19936;-77
2022/07/04 03:53:56;;;;;;;;;;;23.20;55.80;;;;;;5041425;28;20471;-77
2022/07/04 03:56:22;;;;;;;;;;;22.90;55.70;;;;;;5039740;28;19931;-75
2022/07/04 03:58:49;;;;;;;;;;;23.20;55.80;;;;;;5039283;28;20448;-77
2022/07/04 04:01:16;;;;;;;;;;;23.10;55.90;;;;;;5039992;28;20043;-76
2022/07/04 04:06:27;;;;;;;;;;;23.10;56.10;;;;;;5039427;28;19950;-74
2022/07/04 04:08:55;;;;;;;;;;;23.00;56.10;;;;;;5041809;28;19933;-77
2022/07/04 04:11:22;;;;;;;;;;;23.00;56.20;;;;;;5042806;28;19924;-76
2022/07/04 04:13:48;;;;;;;;;;;23.00;56.20;;;;;;5039969;28;19929;-75
2022/07/04 04:16:15;;;;;;;;;;;22.90;56.30;;;;;;5039644;28;21441;-73
2022/07/04 04:18:42;;;;;;;;;;;22.90;56.30;;;;;;5043293;28;19928;-75
2022/07/04 04:21:08;;;;;;;;;;;22.90;56.40;;;;;;5041091;28;19932;-74
2022/07/04 04:23:35;;;;;;;;;;;22.90;56.40;;;;;;5044521;28;20344;-76
2022/07/04 04:26:03;;;;;;;;;;;22.80;56.40;;;;;;5041261;28;20424;-77
2022/07/04 04:28:29;;;;;;;;;;;22.80;56.50;;;;;;5042871;28;19929;-77
2022/07/04 04:30:56;;;;;;;;;;;22.80;56.60;;;;;;5040557;28;19947;-76
2022/07/04 04:33:22;;;;;;;;;;;22.80;56.60;;;;;;5041153;28;19928;-77
2022/07/04 04:35:49;;;;;;;;;;;22.70;56.70;;;;;;5037214;28;20491;-74
2022/07/04 04:38:15;;;;;;;;;;;22.70;56.60;;;;;;5043138;28;19928;-74
2022/07/04 04:40:42;;;;;;;;;;;22.70;56.60;;;;;;5040273;28;19954;-75
2022/07/04 04:43:10;;;;;;;;;;;22.60;56.60;;;;;;5043084;28;20295;-74
2022/07/04 04:45:36;;;;;;;;;;;22.60;56.70;;;;;;5040839;28;21026;-76
2022/07/04 04:48:03;;;;;;;;;;;22.60;56.70;;;;;;5041966;28;20375;-77
2022/07/04 04:50:29;;;;;;;;;;;22.60;56.60;;;;;;5040072;28;19947;-76
2022/07/04 04:52:57;;;;;;;;;;;22.50;56.70;;;;;;5040260;28;19933;-75
2022/07/04 04:55:24;;;;;;;;;;;22.50;56.80;;;;;;5040874;28;19928;-77
2022/07/04 04:57:50;;;;;;;;;;;22.50;56.80;;;;;;5041384;28;19933;-79
2022/07/04 05:00:18;;;;;;;;;;;22.40;56.80;;;;;;5040691;28;19981;-76
2022/07/04 05:02:45;;;;;;;;;;;22.30;55.10;;;;;;5042258;28;19936;-76
2022/07/04 05:05:12;;;;;;;;;;;22.20;55.80;;;;;;5038861;28;19928;-76
2022/07/04 05:07:38;;;;;;;;;;;22.10;56.30;;;;;;5041717;28;19936;-77
2022/07/04 05:10:05;;;;;;;;;;;22.10;56.80;;;;;;5039753;28;19932;-74
2022/07/04 05:12:32;;;;;;;;;;;22.10;57.10;;;;;;5040237;28;19991;-75
2022/07/04 05:14:59;;;;;;;;;;;22.10;57.20;;;;;;5041938;28;20393;-77
2022/07/04 05:17:27;;;;;;;;;;;22.10;57.30;;;;;;5044160;28;19929;-76
2022/07/04 05:19:53;;;;;;;;;;;22.00;57.20;;;;;;5044380;28;19929;-75
2022/07/04 05:22:20;;;;;;;;;;;22.10;57.20;;;;;;5042034;28;20584;-77
2022/07/04 05:24:46;;;;;;;;;;;22.00;57.00;;;;;;5037602;28;20431;-74
2022/07/04 05:27:13;;;;;;;;;;;22.00;57.10;;;;;;5039189;28;20417;-76
2022/07/04 05:29:39;;;;;;;;;;;22.00;57.20;;;;;;5040682;28;19940;-74
2022/07/04 05:32:07;;;;;;;;;;;22.00;57.20;;;;;;5034976;28;19936;-75
2022/07/04 05:34:35;;;;;;;;;;;22.00;57.30;;;;;;5038505;28;19929;-76
2022/07/04 05:37:02;;;;;;;;;;;22.00;57.20;;;;;;5043776;28;19928;-75
2022/07/04 05:39:29;;;;;;;;;;;22.00;57.10;;;;;;5042917;28;20047;-76
2022/07/04 05:41:55;;;;;;;;;;;22.00;57.10;;;;;;5043960;28;19935;-75
2022/07/04 05:44:22;;;;;;;;;;;22.00;57.00;;;;;;5042827;28;19932;-77
2022/07/04 05:46:48;;;;;;;;;;;22.00;57.00;;;;;;5042210;28;19933;-75
2022/07/04 05:49:15;;;;;;;;;;;22.00;57.00;;;;;;5044417;28;19928;-77
2022/07/04 05:51:43;;;;;;;;;;;22.00;57.00;;;;;;5039773;28;19936;-75
2022/07/04 05:54:09;;;;;;;;;;;22.00;57.10;;;;;;5044859;28;19929;-74
2022/07/04 05:56:37;;;;;;;;;;;22.00;57.00;;;;;;5045376;28;19929;-75
2022/07/04 05:59:04;;;;;;;;;;;22.00;57.10;;;;;;5044739;28;19936;-76
2022/07/04 06:01:30;;;;;;;;;;;22.00;57.60;;;;;;5048997;28;19932;-77
2022/07/04 06:03:57;;;;;;;;;;;22.00;57.10;;;;;;5043074;28;20188;-74
2022/07/04 06:06:23;;;;;;;;;;;22.00;57.30;;;;;;5043445;28;20320;-77
2022/07/04 06:08:51;;;;;;;;;;;22.00;57.00;;;;;;5043930;28;19933;-77
2022/07/04 06:11:18;;;;;;;;;;;22.00;57.00;;;;;;5040634;28;19940;-76
2022/07/04 06:13:44;;;;;;;;;;;22.00;56.90;;;;;;5034347;28;20020;-77
2022/07/04 06:16:11;;;;;;;;;;;22.00;57.10;;;;;;5043612;28;19936;-74
2022/07/04 06:18:37;;;;;;;;;;;22.00;57.10;;;;;;5043925;28;19936;-76
2022/07/04 06:21:04;;;;;;;;;;;22.00;57.10;;;;;;5043368;28;19936;-77
2022/07/04 06:23:31;;;;;;;;;;;22.00;57.20;;;;;;5041366;28;19929;-76
2022/07/04 06:25:59;;;;;;;;;;;22.00;57.20;;;;;;5042327;28;19935;-77
2022/07/04 06:28:25;;;;;;;;;;;22.00;57.10;;;;;;5044551;28;19928;-76
2022/07/04 06:30:52;;;;;;;;;;;22.00;57.20;;;;;;5039214;28;19932;-77
2022/07/04 06:33:19;;;;;;;;;;;22.00;57.00;;;;;;5042146;28;19933;-74
2022/07/04 06:35:45;;;;;;;;;;;22.00;57.10;;;;;;5032505;28;22056;-77
2022/07/04 06:38:12;;;;;;;;;;;22.00;57.00;;;;;;5041648;28;20019;-75
2022/07/04 06:40:39;;;;;;;;;;;22.00;57.10;;;;;;5031128;28;20055;-76
2022/07/04 06:43:07;;;;;;;;;;;22.00;57.10;;;;;;5039769;28;19936;-77
2022/07/04 06:45:34;;;;;;;;;;;22.00;57.10;;;;;;5040624;28;19932;-78
2022/07/04 06:48:00;;;;;;;;;;;22.00;57.10;;;;;;5041124;28;19971;-74
2022/07/04 06:50:27;;;;;;;;;;;22.00;57.10;;;;;;5038648;28;19929;-74
2022/07/04 06:52:54;;;;;;;;;;;22.00;57.20;;;;;;5039453;28;19928;-76
2022/07/04 06:55:21;;;;;;;;;;;22.00;57.20;;;;;;5037495;28;19929;-77
2022/07/04 06:57:47;;;;;;;;;;;22.00;57.20;;;;;;5044316;28;19933;-75
2022/07/04 07:00:15;;;;;;;;;;;22.00;57.10;;;;;;5042205;28;19933;-74
2022/07/04 07:02:42;;;;;;;;;;;22.00;57.10;;;;;;5040628;28;20371;-74
2022/07/04 07:05:09;;;;;;;;;;;22.00;57.20;;;;;;5041574;28;20036;-74
2022/07/04 07:07:35;;;;;;;;;;;22.00;57.10;;;;;;5040422;28;19929;-74
2022/07/04 07:10:03;;;;;;;;;;;22.10;57.20;;;;;;5036039;28;19933;-76
2022/07/04 07:12:30;;;;;;;;;;;22.10;57.30;;;;;;5036463;28;20102;-76
2022/07/04 07:17:33;;;;;;;;;;;22.10;57.10;;;;;;5039949;23;19936;-76
2022/07/04 07:19:59;;;;;;;;;;;22.10;57.20;;;;;;5021175;28;20544;-77
2022/07/04 07:22:26;;;;;;;;;;;22.10;57.20;;;;;;5022532;28;19925;-74
2022/07/04 07:24:53;;;;;;;;;;;22.10;57.20;;;;;;5023851;28;19955;-76
2022/07/04 07:27:19;;;;;;;;;;;22.10;57.00;;;;;;5022776;28;19929;-76
2022/07/04 07:29:46;;;;;;;;;;;22.10;57.20;;;;;;5023898;28;20768;-74
2022/07/04 07:32:13;;;;;;;;;;;22.10;57.20;;;;;;5021625;28;19929;-75
2022/07/04 07:34:41;;;;;;;;;;;22.10;57.20;;;;;;5017967;28;19933;-74
2022/07/04 07:37:08;;;;;;;;;;;22.20;57.20;;;;;;5019209;28;19943;-75
2022/07/04 07:39:34;;;;;;;;;;;22.20;57.20;;;;;;5025269;28;19955;-76
2022/07/04 07:42:01;;;;;;;;;;;22.20;57.20;;;;;;5023253;28;19951;-75
2022/07/04 07:44:28;;;;;;;;;;;22.20;57.20;;;;;;5027470;28;19929;-77
2022/07/04 07:46:54;;;;;;;;;;;22.20;57.10;;;;;;5025933;28;19929;-76
2022/07/04 07:49:21;;;;;;;;;;;22.20;57.10;;;;;;5026328;28;19929;-76
2022/07/04 07:51:49;;;;;;;;;;;22.20;57.10;;;;;;5028102;28;20311;-75
2022/07/04 07:54:17;;;;;;;;;;;22.20;57.20;;;;;;5026222;28;20056;-77
2022/07/04 07:56:43;;;;;;;;;;;22.30;57.20;;;;;;5022209;28;19929;-76
2022/07/04 07:59:10;;;;;;;;;;;22.30;57.10;;;;;;5023889;28;19940;-73
2022/07/04 08:01:36;;;;;;;;;;;22.30;57.00;;;;;;5025219;28;19928;-76
2022/07/04 08:06:49;;;;;;;;;;;22.40;57.10;;;;;;5025668;28;19971;-75
2022/07/04 08:09:15;;;;;;;;;;;22.30;56.90;;;;;;5021986;28;19936;-77
2022/07/04 08:11:42;;;;;;;;;;;22.40;56.80;;;;;;5022735;28;20020;-74
2022/07/04 08:14:09;;;;;;;;;;;22.40;56.80;;;;;;5021709;28;20376;-75
2022/07/04 08:16:35;;;;;;;;;;;22.40;56.80;;;;;;5025555;28;19929;-77
2022/07/04 08:19:02;;;;;;;;;;;22.40;56.90;;;;;;5023391;28;19949;-74
2022/07/04 08:21:29;;;;;;;;;;;22.40;56.90;;;;;;5024556;28;20534;-76
2022/07/04 08:23:57;;;;;;;;;;;22.50;56.80;;;;;;5024778;28;19933;-76
2022/07/04 08:26:23;;;;;;;;;;;22.40;56.80;;;;;;5024245;28;19936;-74
2022/07/04 08:28:51;;;;;;;;;;;22.50;56.80;;;;;;5025210;28;20003;-76
2022/07/04 08:31:18;;;;;;;;;;;22.50;56.80;;;;;;5024088;28;19936;-74
2022/07/04 08:33:44;;;;;;;;;;;22.60;57.00;;;;;;5023576;28;19939;-76
2022/07/04 08:36:11;;;;;;;;;;;22.50;56.80;;;;;;5022595;28;19940;-74
2022/07/04 08:38:37;;;;;;;;;;;22.60;56.80;;;;;;5020567;28;19929;-75
2022/07/04 08:41:05;;;;;;;;;;;22.60;56.70;;;;;;5024459;28;19929;-75
2022/07/04 08:43:35;;;;;;;;;;;22.60;56.50;;;;;;5022758;28;19936;-74
2022/07/04 08:46:03;;;;;;;;;;;22.70;56.40;;;;;;5022360;28;19929;-73
2022/07/04 08:48:31;;;;;;;;;;;22.70;56.40;;;;;;5020457;28;19956;-76
2022/07/04 08:50:59;;;;;;;;;;;22.70;56.30;;;;;;5026053;28;20448;-75
2022/07/04 08:53:28;;;;;;;;;;;22.70;56.40;;;;;;5025558;28;19976;-75
2022/07/04 08:58:42;;;;;;;;;;;22.80;56.40;;;;;;5026691;28;20802;-74
2022/07/04 09:01:14;;;;;;;;;;;22.80;56.40;;;;;;5029147;28;19932;-75
2022/07/04 09:03:41;;;;;;;;;;;22.90;56.40;;;;;;5023996;28;19969;-74
2022/07/04 09:06:08;;;;;;;;;;;22.90;56.30;;;;;;5021201;28;19941;-77
2022/07/04 09:08:34;;;;;;;;;;;22.90;56.20;;;;;;5024772;28;19933;-64
2022/07/04 09:11:01;;;;;;;;;;;23.00;56.20;;;;;;5023226;28;19936;-64
2022/07/04 09:13:28;;;;;;;;;;;23.00;56.10;;;;;;5024358;28;19936;-65
2022/07/04 09:15:56;;;;;;;;;;;23.00;56.00;;;;;;5025466;28;19960;-66
2022/07/04 09:18:23;;;;;;;;;;;23.10;55.70;;;;;;5026061;28;19937;-69
2022/07/04 09:20:50;;;;;;;;;;;23.10;55.50;;;;;;5024451;28;19933;-68
2022/07/04 09:23:18;;;;;;;;;;;23.10;55.10;;;;;;5025276;28;19979;-66
2022/07/04 09:25:45;;;;;;;;;;;23.10;54.90;;;;;;5024989;28;19951;-66
2022/07/04 09:28:11;;;;;;;;;;;23.20;54.80;;;;;;5027396;28;20420;-64
2022/07/04 09:30:47;;;;;;;;;;;23.30;54.90;;;;;;5025361;28;19936;-66
2022/07/04 09:33:17;;;;;;;;;;;23.30;54.70;;;;;;5025693;28;20454;-69
2022/07/04 09:35:43;;;;;;;;;;;23.30;54.50;;;;;;5026265;28;19929;-67
2022/07/04 09:38:11;;;;;;;;;;;23.40;54.40;;;;;;5027779;28;19933;-63
2022/07/04 09:43:20;;;;;;;;;;;23.50;54.30;;;;;;5018765;28;20466;-67
2022/07/04 09:45:54;;;;;;;;;;;23.50;54.30;;;;;;5024876;28;19937;-66
2022/07/04 09:48:22;;;;;;;;;;;23.50;53.90;;;;;;5025196;28;19968;-67
2022/07/04 09:50:49;;;;;;;;;;;23.60;53.70;;;;;;5025047;28;19928;-66
2022/07/04 09:53:15;;;;;;;;;;;23.70;53.80;;;;;;5027977;28;20337;-68
2022/07/04 09:55:42;;;;;;;;;;;23.70;53.70;;;;;;5019119;28;19929;-65
2022/07/04 09:58:10;;;;;;;;;;;23.80;53.70;;;;;;5026732;28;19936;-66
2022/07/04 10:00:37;;;;;;;;;;;23.80;53.60;;;;;;5025909;28;19943;-65
2022/07/04 10:03:17;;;;;;;;;;;23.80;53.40;;;;;;5024271;28;19929;-67
2022/07/04 10:05:45;;;;;;;;;;;23.90;53.30;;;;;;5025111;28;19936;-68
2022/07/04 10:08:12;;;;;;;;;;;23.90;53.20;;;;;;5026111;28;19983;-66
2022/07/04 10:10:39;;;;;;;;;;;24.00;52.80;;;;;;5021252;28;19936;-65
2022/07/04 10:13:07;;;;;;;;;;;24.00;52.30;;;;;;5025821;28;19929;-67
2022/07/04 10:15:35;;;;;;;;;;;24.10;52.50;;;;;;5019332;28;20014;-68
2022/07/04 10:18:01;;;;;;;;;;;24.20;52.60;;;;;;5025304;28;20289;-65
2022/07/04 10:20:28;;;;;;;;;;;24.20;52.70;;;;;;5021350;28;19936;-68
2022/07/04 10:22:56;;;;;;;;;;;24.30;52.70;;;;;;5026660;28;19968;-68
2022/07/04 10:25:23;;;;;;;;;;;24.30;52.40;;;;;;5023368;28;19933;-68
2022/07/04 10:27:51;;;;;;;;;;;24.40;52.40;;;;;;5026116;28;19929;-67
2022/07/04 10:30:21;;;;;;;;;;;24.50;52.10;;;;;;5024176;28;19929;-65
2022/07/04 10:32:48;;;;;;;;;;;24.50;51.60;;;;;;5022892;28;19987;-65
2022/07/04 10:35:16;;;;;;;;;;;24.60;51.30;;;;;;5020074;28;19937;-67
2022/07/04 10:38:03;;;;;;;;;;;24.70;51.30;;;;;;5024010;28;19929;-68
2022/07/04 10:40:39;;;;;;;;;;;24.70;51.20;;;;;;5021972;28;19929;-67
2022/07/04 10:43:21;;;;;;;;;;;24.80;51.30;;;;;;5021547;28;19936;-66
2022/07/04 10:45:49;;;;;;;;;;;24.90;51.00;;;;;;5022852;28;20421;-65
2022/07/04 10:48:20;;;;;;;;;;;24.90;50.80;;;;;;5023358;28;21813;-67
2022/07/04 10:50:58;;;;;;;;;;;25.00;51.10;;;;;;5023957;28;19983;-67
2022/07/04 10:53:26;;;;;;;;;;;25.00;50.80;;;;;;5018228;28;19932;-66
2022/07/04 10:55:52;;;;;;;;;;;25.10;50.70;;;;;;5017999;28;19929;-67
2022/07/04 10:58:38;;;;;;;;;;;25.10;50.20;;;;;;5024192;28;20580;-64
2022/07/04 11:01:11;;;;;;;;;;;25.20;50.40;;;;;;5023137;28;19929;-67
2022/07/04 11:03:44;;;;;;;;;;;25.20;50.00;;;;;;5024122;28;19933;-66
2022/07/04 11:06:45;;;;;;;;;;;25.30;50.50;;;;;;5024517;28;19929;-64
2022/07/04 11:09:15;;;;;;;;;;;25.40;51.40;;;;;;5023874;28;19933;-65
2022/07/04 11:11:49;;;;;;;;;;;25.40;52.00;;;;;;5025795;28;19940;-65
2022/07/04 11:14:31;;;;;;;;;;;25.50;51.40;;;;;;5018149;28;20016;-68
2022/07/04 11:16:58;;;;;;;;;;;25.50;51.40;;;;;;5023435;28;20403;-66
2022/07/04 11:19:24;;;;;;;;;;;25.50;51.90;;;;;;5020683;28;19936;-66
2022/07/04 11:21:51;;;;;;;;;;;25.60;50.90;;;;;;5023350;28;19929;-67
2022/07/04 11:24:19;;;;;;;;;;;25.60;51.30;;;;;;5021952;28;20062;-68
2022/07/04 11:26:46;;;;;;;;;;;25.70;51.60;;;;;;5025157;28;19961;-67
2022/07/04 11:29:13;;;;;;;;;;;25.70;51.80;;;;;;5026592;28;20516;-65
2022/07/04 11:31:40;;;;;;;;;;;25.80;51.40;;;;;;5023318;28;19936;-68
2022/07/04 11:34:07;;;;;;;;;;;25.80;51.30;;;;;;5023209;28;20012;-67
2022/07/04 11:36:33;;;;;;;;;;;25.90;51.30;;;;;;5024088;28;19939;-67
2022/07/04 11:39:01;;;;;;;;;;;25.90;51.00;;;;;;5024544;28;19928;-67
2022/07/04 11:47:03;;;;;;;;;;;26.10;48.50;;;;;;5023024;28;20446;-68
2022/07/04 11:49:29;;;;;;;;;;;26.10;48.30;;;;;;5023266;28;19929;-69
2022/07/04 11:51:56;;;;;;;;;;;26.20;48.80;;;;;;5023680;28;19972;-66
2022/07/04 11:54:22;;;;;;;;;;;26.20;48.30;;;;;;5024407;28;19929;-69
2022/07/04 11:56:51;;;;;;;;;;;26.30;48.50;;;;;;5020097;28;19929;-68
2022/07/04 11:59:17;;;;;;;;;;;26.30;49.30;;;;;;5023667;28;19929;-67
2022/07/04 12:01:45;;;;;;;;;;;26.40;49.30;;;;;;5022380;28;19933;-67
2022/07/04 12:04:12;;;;;;;;;;;26.40;50.10;;;;;;5022125;28;20356;-66
2022/07/04 12:06:38;;;;;;;;;;;26.50;49.00;;;;;;5020741;28;19933;-66
2022/07/04 12:09:05;;;;;;;;;;;26.60;49.10;;;;;;5023187;28;19972;-67
2022/07/04 12:11:46;;;;;;;;;;;26.60;48.10;;;;;;5020588;28;20302;-64
2022/07/04 12:14:15;;;;;;;;;;;26.70;47.40;;;;;;5022458;28;19929;-65
2022/07/04 12:16:41;;;;;;;;;;;26.70;48.80;;;;;;5021472;28;20409;-64
2022/07/04 12:19:09;;;;;;;;;;;26.80;49.10;;;;;;5023545;28;19940;-64
2022/07/04 12:21:35;;;;;;;;;;;26.80;48.90;;;;;;5022243;28;19940;-66
2022/07/04 12:24:03;;;;;;;;;;;26.90;48.90;;;;;;5025936;28;19936;-65
2022/07/04 12:26:30;;;;;;;;;;;26.90;48.60;;;;;;5025384;28;19929;-69
2022/07/04 12:28:57;;;;;;;;;;;26.90;48.00;;;;;;5027390;28;20368;-67
2022/07/04 12:31:38;;;;;;;;;;;27.00;47.40;;;;;;5026390;28;20000;-66
2022/07/04 12:34:04;;;;;;;;;;;27.00;46.80;;;;;;5026235;28;19936;-67
2022/07/04 12:36:31;;;;;;;;;;;27.10;47.10;;;;;;5026826;28;20000;-66
2022/07/04 12:38:57;;;;;;;;;;;27.20;47.90;;;;;;5027675;28;20309;-67
2022/07/04 12:41:30;;;;;;;;;;;27.20;47.40;;;;;;5022487;28;19979;-66
2022/07/04 12:43:58;;;;;;;;;;;27.30;47.60;;;;;;5025886;28;19929;-69
2022/07/04 12:46:28;;;;;;;;;;;27.30;47.80;;;;;;5026983;28;19929;-65
2022/07/04 12:48:56;;;;;;;;;;;27.40;47.90;;;;;;5027463;28;19937;-63
2022/07/04 12:51:24;;;;;;;;;;;27.40;47.70;;;;;;5026071;28;19936;-65
2022/07/04 12:53:52;;;;;;;;;;;27.40;47.20;;;;;;5024663;28;20992;-68
2022/07/04 12:56:28;;;;;;;;;;;27.50;48.10;;;;;;5023241;28;19928;-67
2022/07/04 12:58:55;;;;;;;;;;;27.50;48.10;;;;;;5027198;28;20011;-67
2022/07/04 13:01:21;;;;;;;;;;;27.50;48.20;;;;;;5026750;28;20429;-67
2022/07/04 13:03:48;;;;;;;;;;;27.60;47.30;;;;;;5026492;28;20030;-65
2022/07/04 13:06:16;;;;;;;;;;;27.60;46.90;;;;;;5025894;28;19936;-67
2022/07/04 13:08:42;;;;;;;;;;;27.70;47.80;;;;;;5026323;28;20441;-67
2022/07/04 13:13:53;;;;;;;;;;;27.70;48.10;;;;;;5026093;28;19936;-67
2022/07/04 13:16:19;;;;;;;;;;;27.70;46.90;;;;;;5025619;28;19936;-68
2022/07/04 13:18:46;;;;;;;;;;;27.80;45.00;;;;;;5024114;28;19929;-68
2022/07/04 13:21:13;;;;;;;;;;;27.80;46.20;;;;;;5025606;28;20158;-66
2022/07/04 13:23:41;;;;;;;;;;;27.80;46.60;;;;;;5028143;28;19932;-64
2022/07/04 13:26:07;;;;;;;;;;;27.90;46.60;;;;;;5026113;28;19941;-66
2022/07/04 13:28:34;;;;;;;;;;;27.90;45.10;;;;;;5031093;28;19929;-65
2022/07/04 13:31:00;;;;;;;;;;;28.00;46.50;;;;;;5029441;28;19933;-68
2022/07/04 13:33:27;;;;;;;;;;;28.00;45.60;;;;;;5024576;28;19932;-68
2022/07/04 13:35:54;;;;;;;;;;;28.10;46.00;;;;;;5026357;28;19929;-65
2022/07/04 13:38:20;;;;;;;;;;;28.10;45.40;;;;;;5021615;28;19937;-67
2022/07/04 13:40:48;;;;;;;;;;;28.20;45.70;;;;;;5023200;28;20345;-70
2022/07/04 13:43:15;;;;;;;;;;;28.20;45.80;;;;;;5019186;28;19929;-66
2022/07/04 13:45:44;;;;;;;;;;;28.30;44.70;;;;;;5026571;28;19936;-65
2022/07/04 13:48:11;;;;;;;;;;;28.30;44.70;;;;;;5026060;28;19929;-65
2022/07/04 13:50:38;;;;;;;;;;;28.40;44.50;;;;;;5027089;28;20419;-67
2022/07/04 13:53:04;;;;;;;;;;;28.40;45.80;;;;;;5025928;28;20356;-67
2022/07/04 13:55:31;;;;;;;;;;;28.50;44.50;;;;;;5022546;28;19929;-65
2022/07/04 13:57:59;;;;;;;;;;;28.50;45.40;;;;;;5025687;28;19929;-67
2022/07/04 14:00:26;;;;;;;;;;;28.60;46.30;;;;;;5025052;28;19937;-64
2022/07/04 14:02:52;;;;;;;;;;;28.60;45.20;;;;;;5025705;28;19999;-67
2022/07/04 14:05:19;;;;;;;;;;;28.70;45.10;;;;;;5024367;28;19936;-68
2022/07/04 14:07:45;;;;;;;;;;;28.70;44.00;;;;;;5025482;28;19933;-68
2022/07/04 14:10:12;;;;;;;;;;;28.80;44.40;;;;;;5022013;28;19933;-64
2022/07/04 14:12:39;;;;;;;;;;;28.90;44.50;;;;;;5026190;28;19968;-65
2022/07/04 14:15:08;;;;;;;;;;;28.90;45.20;;;;;;5023938;28;20377;-67
2022/07/04 14:17:35;;;;;;;;;;;29.00;45.50;;;;;;5026206;28;19929;-68
2022/07/04 14:20:01;;;;;;;;;;;29.00;44.50;;;;;;5020907;28;19929;-66
2022/07/04 14:22:28;;;;;;;;;;;29.10;42.60;;;;;;5021670;28;20461;-66
2022/07/04 14:24:54;;;;;;;;;;;29.20;44.00;;;;;;5021181;28;20336;-67
2022/07/04 14:27:21;;;;;;;;;;;29.20;43.10;;;;;;5023583;28;20023;-68
2022/07/04 14:29:47;;;;;;;;;;;29.30;42.60;;;;;;5023230;28;19936;-66
2022/07/04 14:32:15;;;;;;;;;;;29.30;42.10;;;;;;5022943;28;19933;-66
2022/07/04 14:34:42;;;;;;;;;;;29.30;41.80;;;;;;5017063;28;19940;-64
2022/07/04 14:37:09;;;;;;;;;;;29.50;42.30;;;;;;5023646;28;20008;-68
2022/07/04 14:39:35;;;;;;;;;;;29.50;42.00;;;;;;5025180;28;19941;-68
2022/07/04 14:42:02;;;;;;;;;;;29.60;43.40;;;;;;5029082;28;20333;-68